Time;durP1;ratioP1;P1;durP2;ratioP2;P2;SDS_P1;SDS_P2;PMS_P1;PMS_P2;Temp;Humidity;BMP_temperature;BMP_pressure;BME280_temperature;BME280_humidity;BME280_pressure;Samples;Min_cycle;Max_cycle;Signal;HPM_P1;HPM_P2
2023/10/23 00:00:20;;;;;;;2.95;1.10;;;23.40;60.40;;;;;;4968597;28;89888;-87
2023/10/23 00:02:46;;;;;;;1.67;1.10;;;23.40;60.40;;;;;;4967304;28;87648;-89
2023/10/23 00:05:12;;;;;;;2.00;1.05;;;23.30;60.40;;;;;;4966884;28;90408;-90
2023/10/23 00:07:42;;;;;;;2.22;1.63;;;23.30;60.40;;;;;;4982267;28;88849;-90
2023/10/23 00:10:08;;;;;;;2.30;1.27;;;23.30;60.40;;;;;;4984655;28;88244;-90
2023/10/23 00:12:41;;;;;;;3.97;1.17;;;23.30;60.50;;;;;;4968679;28;87429;-89
2023/10/23 00:15:09;;;;;;;2.13;1.25;;;23.30;60.60;;;;;;4967485;28;87745;-93
2023/10/23 00:17:35;;;;;;;2.08;1.17;;;23.30;60.60;;;;;;4968770;28;88785;-92
2023/10/23 00:20:02;;;;;;;1.63;1.00;;;23.20;60.60;;;;;;4970012;28;90501;-86
2023/10/23 00:22:27;;;;;;;2.17;1.15;;;23.30;60.60;;;;;;4970150;28;87568;-91
2023/10/23 00:24:53;;;;;;;1.75;0.93;;;23.20;60.70;;;;;;4968991;28;90193;-90
2023/10/23 00:27:19;;;;;;;2.28;1.33;;;23.20;60.70;;;;;;4971029;28;87939;-86
2023/10/23 00:29:44;;;;;;;3.05;1.20;;;23.20;60.50;;;;;;4971774;28;87504;-87
2023/10/23 00:32:10;;;;;;;1.85;1.10;;;23.20;60.50;;;;;;4969667;28;87327;-89
2023/10/23 00:34:36;;;;;;;2.47;1.38;;;23.20;60.80;;;;;;4968808;28;86829;-89
2023/10/23 00:37:04;;;;;;;1.83;0.93;;;23.20;60.70;;;;;;4970947;28;91162;-89
2023/10/23 00:39:30;;;;;;;3.27;1.27;;;23.20;60.70;;;;;;4971356;28;91152;-90
2023/10/23 00:41:55;;;;;;;2.28;1.40;;;23.20;60.70;;;;;;4972464;28;88288;-88
2023/10/23 00:44:21;;;;;;;1.10;0.98;;;23.20;61.10;;;;;;4971666;28;89006;-88
2023/10/23 00:46:47;;;;;;;5.88;1.23;;;23.10;60.70;;;;;;4969396;28;90598;-90
2023/10/23 00:49:13;;;;;;;2.05;1.10;;;23.10;60.70;;;;;;4987567;28;90292;-89
2023/10/23 00:51:39;;;;;;;1.35;1.10;;;23.10;60.60;;;;;;4971975;28;87258;-89
2023/10/23 00:54:09;;;;;;;2.08;1.23;;;23.10;60.60;;;;;;4970541;28;87914;-89
2023/10/23 00:56:37;;;;;;;1.58;1.23;;;23.10;60.70;;;;;;4971089;28;88484;-89
2023/10/23 00:59:03;;;;;;;2.83;1.08;;;23.10;60.50;;;;;;4985900;28;89286;-90
2023/10/23 01:01:31;;;;;;;2.40;1.30;;;23.10;60.40;;;;;;4970619;28;87678;-87
2023/10/23 01:03:59;;;;;;;0.98;0.85;;;23.10;60.60;;;;;;4970949;28;87993;-88
2023/10/23 01:06:26;;;;;;;1.63;1.03;;;23.00;60.40;;;;;;4971531;28;88464;-91
2023/10/23 01:08:55;;;;;;;1.70;1.27;;;23.00;60.60;;;;;;4986420;28;89928;-90
2023/10/23 01:11:20;;;;;;;0.82;0.82;;;23.00;60.60;;;;;;4969729;28;87357;-89
2023/10/23 01:13:46;;;;;;;3.13;1.52;;;23.00;60.70;;;;;;4969251;28;87625;-88
2023/10/23 01:16:12;;;;;;;1.50;0.98;;;23.00;60.70;;;;;;4967579;28;90466;-88
2023/10/23 01:18:37;;;;;;;2.25;1.00;;;23.00;60.60;;;;;;4967037;28;88816;-87
2023/10/23 01:21:11;;;;;;;1.63;1.10;;;23.00;60.50;;;;;;4968222;28;87538;-88
2023/10/23 01:23:37;;;;;;;1.60;0.80;;;23.00;60.50;;;;;;4982823;28;89527;-88
2023/10/23 01:26:03;;;;;;;1.13;0.90;;;23.00;60.60;;;;;;4967358;28;89653;-88
2023/10/23 01:28:29;;;;;;;1.88;0.90;;;23.00;60.80;;;;;;4968344;28;90806;-89
2023/10/23 01:30:54;;;;;;;1.02;0.93;;;23.00;60.50;;;;;;4970930;28;88418;-89
2023/10/23 01:33:20;;;;;;;1.88;1.13;;;23.00;60.40;;;;;;4966689;28;90133;-90
2023/10/23 01:35:46;;;;;;;1.73;1.02;;;22.90;60.40;;;;;;4982890;28;91219;-91
2023/10/23 01:38:13;;;;;;;1.63;1.10;;;22.90;60.40;;;;;;4966941;28;88714;-90
2023/10/23 01:40:39;;;;;;;2.35;1.25;;;22.90;60.40;;;;;;4967574;28;88065;-89
2023/10/23 01:43:04;;;;;;;1.55;1.05;;;22.90;60.50;;;;;;4967862;28;88141;-87
2023/10/23 01:45:30;;;;;;;1.40;1.13;;;22.90;60.60;;;;;;4970755;28;90117;-87
2023/10/23 01:47:56;;;;;;;1.38;0.90;;;22.90;60.50;;;;;;4970080;28;91703;-89
2023/10/23 01:50:23;;;;;;;1.08;0.93;;;22.90;60.40;;;;;;4972633;28;87192;-90
2023/10/23 01:52:49;;;;;;;1.90;1.13;;;22.90;60.60;;;;;;4972451;28;87047;-89
2023/10/23 01:55:14;;;;;;;1.75;1.13;;;22.90;60.40;;;;;;4969602;28;91631;-89
2023/10/23 01:57:40;;;;;;;1.58;0.90;;;22.90;60.60;;;;;;4971622;28;91590;-90
2023/10/23 02:00:06;;;;;;;1.10;1.00;;;22.90;60.30;;;;;;4970574;28;87780;-90
2023/10/23 02:02:33;;;;;;;2.15;1.05;;;22.80;60.30;;;;;;4969214;28;89011;-87
2023/10/23 02:04:59;;;;;;;1.40;0.90;;;22.90;60.40;;;;;;4954191;28;89149;-90
2023/10/23 02:07:27;;;;;;;1.58;1.02;;;22.80;60.50;;;;;;4985471;28;89457;-90
2023/10/23 02:09:53;;;;;;;1.45;0.80;;;22.80;60.50;;;;;;4970415;28;87752;-88
2023/10/23 02:12:19;;;;;;;0.93;0.80;;;22.80;60.40;;;;;;4986066;28;88529;-89
2023/10/23 02:14:44;;;;;;;1.98;0.90;;;22.80;60.40;;;;;;4969167;28;90389;-91
2023/10/23 02:17:10;;;;;;;1.92;1.00;;;22.80;60.50;;;;;;4967924;28;90162;-91
2023/10/23 02:19:36;;;;;;;1.85;1.30;;;22.80;60.50;;;;;;4968317;28;87963;-89
2023/10/23 02:22:02;;;;;;;1.63;0.90;;;22.80;60.30;;;;;;4969547;28;90421;-88
2023/10/23 02:24:27;;;;;;;1.88;1.02;;;22.80;60.40;;;;;;4969685;28;90163;-90
2023/10/23 02:26:54;;;;;;;1.65;1.10;;;22.80;60.40;;;;;;4968897;28;87664;-87
2023/10/23 02:29:20;;;;;;;1.20;0.90;;;22.80;60.70;;;;;;4969034;28;87382;-88
2023/10/23 02:31:45;;;;;;;1.08;0.65;;;22.80;60.40;;;;;;4986423;28;87605;-91
2023/10/23 02:34:11;;;;;;;1.98;1.10;;;22.80;60.40;;;;;;4985452;28;90762;-88
2023/10/23 02:36:37;;;;;;;1.20;0.90;;;22.80;60.40;;;;;;4984710;28;88955;-87
2023/10/23 02:39:03;;;;;;;0.80;0.70;;;22.70;60.40;;;;;;4969391;28;87766;-91
2023/10/23 02:41:29;;;;;;;1.10;0.90;;;22.70;60.40;;;;;;4968374;28;88559;-91
2023/10/23 02:43:56;;;;;;;1.25;0.90;;;22.70;60.40;;;;;;4969321;28;89636;-91
2023/10/23 02:46:24;;;;;;;2.00;1.08;;;22.70;60.50;;;;;;4969560;28;89523;-89
2023/10/23 02:48:50;;;;;;;1.83;1.10;;;22.70;60.50;;;;;;4969680;28;87173;-91
2023/10/23 02:51:16;;;;;;;1.65;1.00;;;22.70;60.50;;;;;;4971036;28;88139;-88
2023/10/23 02:53:43;;;;;;;1.58;1.05;;;22.70;60.60;;;;;;4968361;28;90088;-88
2023/10/23 02:56:29;;;;;;;1.45;1.00;;;22.70;60.50;;;;;;4969824;28;88147;-89
2023/10/23 02:58:54;;;;;;;1.30;0.88;;;22.70;60.50;;;;;;4967816;28;87541;-91
2023/10/23 03:01:24;;;;;;;0.70;0.70;;;22.70;60.50;;;;;;4967656;28;88613;-89
2023/10/23 03:03:51;;;;;;;1.02;0.80;;;22.70;60.50;;;;;;4983984;28;90164;-92
2023/10/23 03:06:17;;;;;;;2.17;1.00;;;22.70;60.40;;;;;;4966553;28;89919;-89
2023/10/23 03:08:43;;;;;;;1.27;0.85;;;22.70;60.40;;;;;;4968535;28;88452;-89
2023/10/23 03:11:09;;;;;;;1.33;0.82;;;22.60;60.40;;;;;;4968280;28;88509;-89
2023/10/23 03:13:35;;;;;;;1.30;0.90;;;22.60;60.40;;;;;;4969254;28;88934;-93
2023/10/23 03:16:01;;;;;;;0.98;0.73;;;22.60;60.40;;;;;;4968481;28;89950;-91
2023/10/23 03:18:29;;;;;;;2.03;1.10;;;22.60;60.30;;;;;;4969006;28;88936;-91
2023/10/23 03:21:02;;;;;;;0.60;0.60;;;22.60;60.30;;;;;;4967392;28;89022;-88
2023/10/23 03:23:29;;;;;;;2.03;1.10;;;22.60;60.40;;;;;;4968412;28;91827;-88
2023/10/23 03:25:54;;;;;;;1.20;0.80;;;22.60;60.40;;;;;;4968223;28;88350;-92
2023/10/23 03:28:23;;;;;;;1.10;0.80;;;22.60;60.40;;;;;;4966522;28;87704;-90
2023/10/23 03:30:49;;;;;;;1.10;0.95;;;22.60;60.40;;;;;;4967880;28;88382;-90
2023/10/23 03:33:15;;;;;;;0.65;0.65;;;22.60;60.30;;;;;;4967582;28;90402;-90
2023/10/23 03:35:44;;;;;;;1.45;1.00;;;22.60;60.30;;;;;;4969469;28;89198;-90
2023/10/23 03:38:10;;;;;;;1.15;0.82;;;22.60;60.40;;;;;;4967412;28;87530;-91
2023/10/23 03:40:36;;;;;;;0.95;0.80;;;22.60;60.30;;;;;;4965647;28;87754;-87
2023/10/23 03:43:01;;;;;;;1.42;1.05;;;22.60;60.20;;;;;;4968490;28;88715;-91
2023/10/23 03:45:27;;;;;;;0.90;0.70;;;22.60;60.20;;;;;;4967936;28;88648;-88
2023/10/23 03:47:53;;;;;;;1.13;0.70;;;22.60;60.20;;;;;;4966697;28;87822;-91
2023/10/23 03:50:18;;;;;;;1.42;0.68;;;22.60;60.30;;;;;;4966939;28;90180;-91
2023/10/23 03:52:44;;;;;;;1.67;0.85;;;22.60;60.20;;;;;;4965678;28;90427;-89
2023/10/23 03:55:10;;;;;;;1.58;0.80;;;22.50;60.20;;;;;;4966410;28;89100;-89
2023/10/23 03:57:35;;;;;;;1.13;0.60;;;22.50;60.30;;;;;;4993221;27;88380;-87
2023/10/23 04:00:01;;;;;;;1.40;0.98;;;22.60;60.20;;;;;;4989827;28;90192;-88
2023/10/23 04:02:27;;;;;;;0.88;0.75;;;22.50;60.40;;;;;;4990947;28;90141;-88
2023/10/23 04:04:53;;;;;;;1.20;0.80;;;22.50;60.30;;;;;;4990847;28;89042;-87
2023/10/23 04:07:18;;;;;;;1.17;0.88;;;22.50;60.30;;;;;;4991729;28;86173;-88
2023/10/23 04:09:44;;;;;;;0.80;0.75;;;22.50;60.20;;;;;;4992586;28;88339;-86
2023/10/23 04:12:09;;;;;;;0.88;0.80;;;22.50;60.20;;;;;;4992716;28;89186;-90
2023/10/23 04:14:35;;;;;;;0.95;0.80;;;22.50;60.20;;;;;;4972269;28;89933;-90
2023/10/23 04:17:01;;;;;;;1.20;0.80;;;22.50;60.20;;;;;;4972216;28;87533;-91
2023/10/23 04:19:27;;;;;;;0.93;0.80;;;22.50;60.30;;;;;;4971882;28;89850;-90
2023/10/23 04:21:52;;;;;;;1.30;0.60;;;22.50;60.10;;;;;;4970780;28;91726;-90
2023/10/23 04:24:18;;;;;;;1.08;0.98;;;22.50;60.20;;;;;;4972745;28;89790;-90
2023/10/23 04:26:43;;;;;;;1.65;0.85;;;22.50;60.10;;;;;;4974035;28;87495;-87
2023/10/23 04:29:09;;;;;;;1.05;0.95;;;22.40;60.10;;;;;;4973914;28;89320;-91
2023/10/23 04:31:35;;;;;;;1.15;0.77;;;22.40;60.10;;;;;;4977663;28;90149;-88
2023/10/23 04:34:00;;;;;;;0.70;0.70;;;22.40;60.20;;;;;;4977051;28;90125;-91
2023/10/23 04:36:26;;;;;;;1.00;0.70;;;22.40;60.10;;;;;;4975011;28;88165;-92
2023/10/23 04:39:01;;;;;;;1.13;0.65;;;22.40;60.10;;;;;;4992008;28;88860;-90
2023/10/23 04:41:27;;;;;;;0.70;0.60;;;22.40;60.10;;;;;;4976774;28;89041;-90
2023/10/23 04:43:52;;;;;;;0.90;0.60;;;22.40;60.20;;;;;;4977546;28;87520;-89
2023/10/23 04:46:18;;;;;;;1.08;0.70;;;22.40;60.10;;;;;;4975040;28;88199;-88
2023/10/23 04:48:44;;;;;;;0.90;0.80;;;22.40;60.20;;;;;;4975180;28;87413;-88
2023/10/23 04:51:12;;;;;;;1.30;0.70;;;22.40;60.30;;;;;;4977945;28;90853;-90
2023/10/23 04:53:38;;;;;;;0.95;0.80;;;22.40;60.10;;;;;;4988827;28;89898;-91
2023/10/23 04:56:07;;;;;;;1.40;0.73;;;22.40;60.10;;;;;;4972001;28;87703;-90
2023/10/23 04:58:32;;;;;;;0.82;0.80;;;22.40;60.10;;;;;;4970807;28;89432;-87
2023/10/23 05:00:58;;;;;;;1.00;0.90;;;22.40;60.20;;;;;;4973394;28;90800;-90
2023/10/23 05:03:26;;;;;;;1.13;1.00;;;22.40;60.30;;;;;;4992125;28;89410;-89
2023/10/23 05:05:52;;;;;;;1.70;1.17;;;22.40;60.30;;;;;;4987787;28;87640;-89
2023/10/23 05:08:17;;;;;;;0.70;0.70;;;22.40;60.50;;;;;;4970842;28;88728;-89
2023/10/23 05:10:45;;;;;;;1.00;0.90;;;22.30;60.10;;;;;;4970064;28;90734;-91
2023/10/23 05:13:11;;;;;;;0.82;0.80;;;22.40;60.30;;;;;;4967737;28;88668;-88
2023/10/23 05:15:37;;;;;;;0.88;0.70;;;22.40;60.10;;;;;;4971107;28;87337;-89
2023/10/23 05:18:02;;;;;;;1.50;1.10;;;22.40;60.10;;;;;;4985220;28;90720;-91
2023/10/23 05:20:28;;;;;;;1.20;0.82;;;22.30;60.00;;;;;;4974679;28;88277;-91
2023/10/23 05:22:54;;;;;;;2.42;0.85;;;22.30;60.90;;;;;;4973852;28;89372;-90
2023/10/23 05:25:19;;;;;;;1.23;0.73;;;22.30;60.10;;;;;;4972679;28;88604;-88
2023/10/23 05:27:45;;;;;;;0.77;0.77;;;22.30;60.00;;;;;;4973360;28;86911;-89
2023/10/23 05:30:11;;;;;;;0.70;0.60;;;22.30;60.10;;;;;;4973482;28;90534;-90
2023/10/23 05:32:37;;;;;;;1.45;0.80;;;22.30;60.90;;;;;;4973005;28;88488;-89
2023/10/23 05:35:04;;;;;;;0.68;0.63;;;22.30;60.00;;;;;;4972692;28;88942;-90
2023/10/23 05:37:32;;;;;;;1.75;0.93;;;22.30;59.80;;;;;;4972291;28;88724;-90
2023/10/23 05:39:58;;;;;;;0.77;0.77;;;22.30;60.20;;;;;;4974745;28;89163;-90
2023/10/23 05:42:23;;;;;;;1.30;0.98;;;22.30;60.10;;;;;;4968415;28;90379;-89
2023/10/23 05:44:51;;;;;;;1.77;0.80;;;22.30;60.20;;;;;;4968509;28;87994;-89
2023/10/23 05:47:16;;;;;;;0.98;0.82;;;22.30;60.20;;;;;;4984884;28;91367;-88
2023/10/23 05:49:42;;;;;;;0.57;0.52;;;22.30;60.30;;;;;;4968469;28;90349;-89
2023/10/23 05:52:08;;;;;;;1.27;0.90;;;22.30;60.10;;;;;;4970835;28;90351;-88
2023/10/23 05:54:34;;;;;;;0.80;0.77;;;22.30;60.30;;;;;;4967981;28;88103;-88
2023/10/23 05:56:59;;;;;;;1.23;0.80;;;22.20;60.10;;;;;;4970054;28;87538;-89
2023/10/23 05:59:25;;;;;;;0.50;0.50;;;22.20;60.00;;;;;;4968525;28;89871;-90
2023/10/23 06:01:52;;;;;;;1.50;1.05;;;22.20;60.20;;;;;;4969621;28;90338;-87
2023/10/23 06:04:17;;;;;;;0.80;0.60;;;22.20;60.30;;;;;;4968056;28;87533;-88
2023/10/23 06:06:43;;;;;;;1.33;0.70;;;22.20;60.10;;;;;;4970712;28;90573;-89
2023/10/23 06:09:09;;;;;;;1.80;0.70;;;22.20;60.10;;;;;;4972064;28;91287;-88
2023/10/23 06:11:35;;;;;;;3.00;0.90;;;22.20;59.90;;;;;;4972323;28;89077;-90
2023/10/23 06:14:00;;;;;;;2.20;0.60;;;22.20;59.90;;;;;;4972066;28;87546;-91
2023/10/23 06:16:26;;;;;;;1.13;0.70;;;22.20;59.90;;;;;;4970631;28;87312;-88
2023/10/23 06:18:52;;;;;;;0.85;0.80;;;22.20;60.10;;;;;;4968539;28;90698;-87
2023/10/23 06:21:35;;;;;;;0.98;0.77;;;22.20;60.30;;;;;;4968431;28;89274;-87
2023/10/23 06:24:01;;;;;;;1.55;0.82;;;22.20;60.30;;;;;;4969305;28;88905;-91
2023/10/23 06:26:28;;;;;;;7.68;1.10;;;22.20;60.00;;;;;;4973930;28;89620;-89
2023/10/23 06:28:54;;;;;;;1.55;0.98;;;22.20;60.10;;;;;;4972750;28;90538;-90
2023/10/23 06:31:21;;;;;;;1.58;0.98;;;22.20;60.40;;;;;;4972779;28;89933;-89
2023/10/23 06:33:47;;;;;;;3.05;0.80;;;22.20;60.50;;;;;;4972108;28;87667;-89
2023/10/23 06:36:12;;;;;;;2.42;1.25;;;22.20;60.60;;;;;;4974739;28;88191;-91
2023/10/23 06:38:38;;;;;;;7.97;1.38;;;22.20;60.90;;;;;;4973106;28;87762;-87
2023/10/23 06:41:05;;;;;;;3.95;1.30;;;22.20;60.70;;;;;;4971497;28;88625;-92
2023/10/23 06:43:41;;;;;;;3.20;1.60;;;22.20;60.70;;;;;;4970118;28;87864;-92
2023/10/23 06:46:07;;;;;;;3.85;1.20;;;22.30;60.60;;;;;;4967161;28;88810;-89
2023/10/23 06:48:33;;;;;;;2.15;0.75;;;22.20;60.40;;;;;;4971579;28;88984;-90
2023/10/23 06:50:59;;;;;;;1.25;1.10;;;22.30;60.20;;;;;;4970740;28;91898;-92
2023/10/23 06:53:25;;;;;;;3.13;1.15;;;22.20;60.60;;;;;;4967284;28;87034;-89
2023/10/23 06:55:53;;;;;;;3.25;1.40;;;22.20;60.30;;;;;;4969904;28;87205;-90
2023/10/23 06:58:19;;;;;;;2.33;1.20;;;22.30;60.50;;;;;;4970831;28;87609;-91
2023/10/23 07:00:48;;;;;;;3.33;1.42;;;22.30;60.50;;;;;;4969261;28;89162;-89
2023/10/23 07:03:14;;;;;;;1.92;1.00;;;22.30;60.70;;;;;;4970926;28;87715;-88
2023/10/23 07:05:40;;;;;;;2.63;1.30;;;22.30;60.80;;;;;;4968568;28;90944;-88
2023/10/23 07:08:06;;;;;;;2.17;1.08;;;22.30;60.50;;;;;;4969802;28;88001;-91
2023/10/23 07:10:36;;;;;;;2.58;1.15;;;22.30;60.40;;;;;;4968922;28;88290;-91
2023/10/23 07:13:02;;;;;;;6.07;1.30;;;22.20;60.50;;;;;;4968992;28;88061;-92
2023/10/23 07:15:29;;;;;;;5.38;1.27;;;22.20;60.50;;;;;;4968916;28;88925;-87
2023/10/23 07:17:58;;;;;;;5.97;1.33;;;22.30;60.80;;;;;;4974403;28;87457;-87
2023/10/23 07:20:24;;;;;;;;;;;22.30;60.70;;;;;;4971802;28;87474;-90
2023/10/23 07:22:53;;;;;;;4.00;1.23;;;22.30;60.80;;;;;;4976191;28;86921;-88
2023/10/23 07:25:19;;;;;;;10.68;2.35;;;22.30;60.40;;;;;;4973506;28;87956;-91
2023/10/23 07:27:44;;;;;;;123.22;23.08;;;22.30;60.00;;;;;;4974676;28;91061;-89
2023/10/23 07:30:11;;;;;;;64.25;12.52;;;22.30;57.90;;;;;;4975031;28;87585;-87
2023/10/23 07:32:37;;;;;;;21.33;4.97;;;22.30;58.10;;;;;;4972768;28;87253;-85
2023/10/23 07:35:08;;;;;;;26.38;5.93;;;22.30;59.00;;;;;;4971407;28;93666;-89
2023/10/23 07:37:34;;;;;;;23.88;4.93;;;22.30;59.90;;;;;;4974513;28;88763;-89
2023/10/23 07:40:04;;;;;;;28.02;6.65;;;22.30;59.50;;;;;;4972973;28;90371;-88
2023/10/23 07:42:30;;;;;;;88.47;22.20;;;22.30;59.70;;;;;;4967880;28;87601;-89
2023/10/23 07:44:56;;;;;;;31.00;7.55;;;22.30;59.50;;;;;;4968480;28;88956;-88
2023/10/23 07:47:21;;;;;;;39.17;9.13;;;22.20;59.70;;;;;;4969445;28;89304;-89
2023/10/23 07:49:47;;;;;;;33.47;6.82;;;22.00;60.40;;;;;;4974109;28;93633;-89
2023/10/23 07:52:18;;;;;;;33.72;7.05;;;21.90;61.00;;;;;;4977861;28;87549;-89
2023/10/23 08:13:05;;;;;;;21.17;5.25;;;22.10;59.00;;;;;;6139071;22;1749350;-90
2023/10/23 08:15:30;;;;;;;22.17;5.85;;;22.10;57.70;;;;;;6198105;22;86112;-92
2023/10/23 08:17:56;;;;;;;24.88;6.38;;;22.00;59.00;;;;;;6191808;22;87280;-89
2023/10/23 08:20:22;;;;;;;20.33;5.22;;;22.10;59.60;;;;;;6197175;22;86512;-89
2023/10/23 08:22:48;;;;;;;25.42;5.85;;;22.10;59.70;;;;;;6196002;22;85623;-90
2023/10/23 08:25:14;;;;;;;22.13;4.93;;;22.00;60.00;;;;;;6198524;22;85882;-90
2023/10/23 08:27:39;;;;;;;18.73;5.68;;;22.00;59.90;;;;;;6193997;22;88215;-90
2023/10/23 08:30:06;;;;;;;18.08;5.03;;;22.00;60.00;;;;;;6196090;22;86318;-91
2023/10/23 08:32:35;;;;;;;24.95;5.70;;;22.10;60.00;;;;;;6196326;22;86244;-90
2023/10/23 08:35:00;;;;;;;22.73;5.90;;;22.00;60.20;;;;;;6194953;22;85944;-91
2023/10/23 08:37:26;;;;;;;17.30;5.70;;;22.10;60.40;;;;;;6197714;22;89791;-93
2023/10/23 08:39:52;;;;;;;23.42;5.95;;;22.10;60.20;;;;;;6187212;22;88196;-90
2023/10/23 08:42:17;;;;;;;25.23;5.40;;;22.10;60.20;;;;;;6184255;22;85837;-91
2023/10/23 08:44:45;;;;;;;21.08;6.15;;;22.10;60.80;;;;;;6186810;22;86007;-90
2023/10/23 08:47:11;;;;;;;18.25;5.85;;;22.20;61.30;;;;;;6192566;22;86725;-91
2023/10/23 08:49:36;;;;;;;25.70;7.03;;;22.20;61.20;;;;;;6194410;22;86660;-91
2023/10/23 08:52:13;;;;;;;23.30;6.28;;;22.20;62.20;;;;;;6193523;22;86067;-90
2023/10/23 08:54:40;;;;;;;19.70;6.03;;;22.20;62.10;;;;;;6194626;22;86323;-91
2023/10/23 08:57:07;;;;;;;18.20;5.43;;;22.20;61.90;;;;;;6194603;22;86734;-89
2023/10/23 08:59:32;;;;;;;20.67;5.70;;;22.30;61.90;;;;;;6194759;22;89065;-89
2023/10/23 09:01:59;;;;;;;20.30;6.28;;;22.30;61.70;;;;;;6198914;22;85401;-92
2023/10/23 09:04:24;;;;;;;26.52;6.07;;;22.30;61.80;;;;;;6197737;22;85100;-93
2023/10/23 09:06:52;;;;;;;21.90;6.45;;;22.30;61.80;;;;;;6192191;22;89353;-87
2023/10/23 09:09:20;;;;;;;21.63;6.22;;;22.40;61.50;;;;;;6191792;22;87880;-87
2023/10/23 09:11:49;;;;;;;22.75;6.88;;;22.40;61.70;;;;;;6184712;22;86254;-87
2023/10/23 09:14:35;;;;;;;28.02;7.18;;;22.40;63.90;;;;;;6176378;22;85794;-88
2023/10/23 09:17:03;;;;;;;19.17;5.80;;;22.40;63.80;;;;;;6183398;22;87955;-88
2023/10/23 09:19:49;;;;;;;25.42;6.88;;;22.40;63.50;;;;;;6186185;22;88327;-87
2023/10/23 09:22:15;;;;;;;20.95;6.47;;;22.40;63.40;;;;;;6129876;22;86221;-87
2023/10/23 09:24:43;;;;;;;23.23;7.22;;;22.50;63.20;;;;;;6025598;23;86451;-88
2023/10/23 09:27:09;;;;;;;20.73;6.80;;;22.50;63.40;;;;;;6064863;23;86644;-88
2023/10/23 09:29:34;;;;;;;14.73;5.57;;;22.50;62.40;;;;;;6066576;23;89078;-88
2023/10/23 09:32:00;;;;;;;15.18;5.22;;;22.50;62.30;;;;;;6066126;23;86050;-87
2023/10/23 09:34:28;;;;;;;17.60;6.40;;;22.50;63.10;;;;;;6053518;23;86047;-88
2023/10/23 09:36:57;;;;;;;20.25;6.35;;;22.50;62.30;;;;;;6074262;23;89969;-88
2023/10/23 09:39:23;;;;;;;17.02;6.13;;;22.50;62.00;;;;;;6097081;23;88949;-86
2023/10/23 09:41:49;;;;;;;20.63;5.95;;;22.50;62.20;;;;;;6093954;23;86297;-87
2023/10/23 09:44:15;;;;;;;21.35;5.63;;;22.50;62.00;;;;;;6096206;23;86237;-88
2023/10/23 09:46:42;;;;;;;15.93;5.45;;;22.50;62.00;;;;;;6093345;23;85978;-88
2023/10/23 09:49:09;;;;;;;17.63;4.88;;;22.50;62.10;;;;;;6097817;23;86631;-87
2023/10/23 09:51:39;;;;;;;13.63;5.63;;;22.50;62.00;;;;;;6095852;23;85936;-88
2023/10/23 09:54:15;;;;;;;19.73;5.88;;;22.50;61.80;;;;;;6102628;23;85896;-92
2023/10/23 09:56:46;;;;;;;17.35;6.22;;;22.60;61.90;;;;;;6101528;23;87469;-95
2023/10/23 09:59:35;;;;;;;18.02;5.75;;;22.60;62.00;;;;;;6101727;23;88743;-93
2023/10/23 10:02:12;;;;;;;16.73;6.25;;;22.60;61.60;;;;;;6101967;23;85988;-91
2023/10/23 10:05:06;;;;;;;12.23;4.95;;;22.60;61.70;;;;;;6099947;23;86213;-86
2023/10/23 10:07:49;;;;;;;14.68;5.25;;;22.60;61.70;;;;;;6100040;23;87419;-92
2023/10/23 10:10:16;;;;;;;15.65;5.40;;;22.60;62.00;;;;;;6099922;23;87547;-93
2023/10/23 10:13:11;;;;;;;22.85;6.00;;;22.60;62.30;;;;;;6099281;23;85624;-92
2023/10/23 10:15:38;;;;;;;16.35;5.35;;;22.60;62.30;;;;;;6100221;23;86077;-90
2023/10/23 10:18:04;;;;;;;12.43;4.10;;;22.60;62.60;;;;;;6100572;23;87496;-91
2023/10/23 10:20:30;;;;;;;24.30;5.95;;;22.60;63.00;;;;;;6101356;23;90452;-92
2023/10/23 10:23:08;;;;;;;15.88;5.13;;;22.60;63.10;;;;;;6096766;23;86260;-92
2023/10/23 10:25:35;;;;;;;12.15;4.97;;;22.60;63.00;;;;;;6068033;23;91989;-93
2023/10/23 10:28:11;;;;;;;17.15;5.32;;;22.60;63.00;;;;;;6098189;23;90326;-91
2023/10/23 10:30:45;;;;;;;13.27;4.82;;;22.60;63.10;;;;;;6085370;23;86020;-92
2023/10/23 10:33:32;;;;;;;16.90;5.85;;;22.60;62.90;;;;;;6086703;23;85923;-89
2023/10/23 10:36:04;;;;;;;16.55;4.75;;;22.60;63.20;;;;;;6099417;23;86191;-90
2023/10/23 10:38:33;;;;;;;17.83;4.63;;;22.60;63.40;;;;;;6099574;23;89082;-92
2023/10/23 10:41:00;;;;;;;15.35;4.70;;;22.50;63.80;;;;;;6099294;23;86326;-87
2023/10/23 10:43:39;;;;;;;18.90;5.40;;;22.60;63.40;;;;;;6100066;23;85852;-88
2023/10/23 10:46:15;;;;;;;13.07;4.85;;;22.50;63.40;;;;;;6099707;23;85691;-88
2023/10/23 10:48:46;;;;;;;14.70;5.18;;;22.50;63.20;;;;;;6096758;23;88037;-86
2023/10/23 10:51:21;;;;;;;13.75;5.35;;;22.50;63.40;;;;;;6079183;23;88563;-87
2023/10/23 10:53:47;;;;;;;13.90;4.63;;;22.50;63.30;;;;;;6097719;23;85974;-90
2023/10/23 10:56:14;;;;;;;12.25;4.88;;;22.60;63.30;;;;;;6098970;23;86230;-87
2023/10/23 10:58:43;;;;;;;13.73;5.57;;;22.60;63.20;;;;;;6096297;23;87462;-87
2023/10/23 11:01:09;;;;;;;13.40;4.70;;;22.60;62.80;;;;;;6097996;23;87399;-86
2023/10/23 11:03:36;;;;;;;11.90;4.85;;;22.60;62.60;;;;;;6095360;23;86123;-87
2023/10/23 11:06:05;;;;;;;12.25;4.68;;;22.60;62.80;;;;;;6096289;23;86355;-86
2023/10/23 11:08:32;;;;;;;10.20;4.40;;;22.60;62.70;;;;;;6098528;23;87363;-90
2023/10/23 11:11:01;;;;;;;11.07;4.45;;;22.60;62.80;;;;;;6093625;23;87357;-87
2023/10/23 11:13:27;;;;;;;;;;;22.60;62.40;;;;;;6094873;23;85933;-88
2023/10/23 11:15:55;;;;;;;14.93;4.63;;;22.60;62.50;;;;;;6095445;23;86148;-87
2023/10/23 11:18:21;;;;;;;13.55;4.32;;;22.70;62.50;;;;;;6094393;23;89036;-88
2023/10/23 11:20:47;;;;;;;12.38;4.82;;;22.60;62.50;;;;;;6093110;23;87045;-85
2023/10/23 11:23:21;;;;;;;15.85;4.40;;;22.70;62.90;;;;;;6097252;23;85659;-88
2023/10/23 11:25:51;;;;;;;12.18;4.45;;;22.60;62.60;;;;;;6098621;23;85449;-87
2023/10/23 11:28:18;;;;;;;13.55;4.43;;;22.60;63.00;;;;;;6097339;23;86245;-87
2023/10/23 11:30:46;;;;;;;10.60;4.15;;;22.70;62.90;;;;;;6093578;23;89749;-88
2023/10/23 11:33:12;;;;;;;16.75;4.47;;;22.60;62.80;;;;;;6092441;23;85666;-87
2023/10/23 11:35:37;;;;;;;11.63;4.35;;;22.60;62.70;;;;;;6092582;23;86140;-86
2023/10/23 11:38:03;;;;;;;10.55;4.45;;;22.60;62.70;;;;;;6092857;23;89102;-86
2023/10/23 11:40:33;;;;;;;16.95;5.03;;;22.60;63.70;;;;;;6097869;23;86882;-87
2023/10/23 11:42:58;;;;;;;12.13;4.57;;;22.60;62.80;;;;;;6095734;23;86118;-85
2023/10/23 11:45:24;;;;;;;10.82;4.43;;;22.60;63.00;;;;;;6096668;23;85914;-86
2023/10/23 11:47:53;;;;;;;10.35;3.95;;;22.60;63.00;;;;;;6094316;23;88461;-87
2023/10/23 11:50:20;;;;;;;11.80;4.88;;;22.60;63.10;;;;;;6092740;23;87746;-86
2023/10/23 11:52:49;;;;;;;11.02;3.63;;;22.60;63.00;;;;;;6092346;23;86287;-85
2023/10/23 11:55:18;;;;;;;11.77;3.97;;;22.60;63.30;;;;;;6091640;23;86258;-86
2023/10/23 11:57:52;;;;;;;10.45;3.75;;;22.60;63.40;;;;;;6092984;23;86734;-88
2023/10/23 12:00:20;;;;;;;12.65;4.35;;;22.60;63.30;;;;;;6095533;23;89463;-86
2023/10/23 12:02:47;;;;;;;8.77;3.90;;;22.60;63.30;;;;;;6078249;23;86330;-87
2023/10/23 12:05:16;;;;;;;24.95;4.50;;;22.60;63.60;;;;;;6071460;23;86264;-88
2023/10/23 12:07:50;;;;;;;19.67;4.82;;;22.60;63.20;;;;;;6095076;23;89371;-88
2023/10/23 12:10:16;;;;;;;10.95;3.85;;;22.60;63.30;;;;;;6094436;23;89208;-86
2023/10/23 12:12:43;;;;;;;10.63;3.72;;;22.60;63.40;;;;;;6115952;23;86354;-85
2023/10/23 12:15:11;;;;;;;14.85;4.97;;;22.60;63.10;;;;;;6098950;23;85798;-85
2023/10/23 12:17:38;;;;;;;15.38;4.20;;;22.60;63.30;;;;;;6101232;23;87700;-87
2023/10/23 12:20:08;;;;;;;17.15;3.92;;;22.60;62.80;;;;;;6099319;23;90805;-87
2023/10/23 12:22:40;;;;;;;14.93;3.13;;;22.60;63.10;;;;;;6097267;23;86257;-87
2023/10/23 12:25:06;;;;;;;10.27;4.28;;;22.60;63.20;;;;;;6098982;23;86318;-86
2023/10/23 12:27:36;;;;;;;12.20;4.25;;;22.60;63.10;;;;;;6122775;23;88321;-87
2023/10/23 12:30:04;;;;;;;16.10;3.85;;;22.60;63.10;;;;;;6098810;23;86825;-86
2023/10/23 12:32:30;;;;;;;16.23;4.23;;;22.60;63.10;;;;;;6098424;23;86174;-86
2023/10/23 12:34:59;;;;;;;12.35;3.83;;;22.60;63.50;;;;;;6097416;23;86508;-86
2023/10/23 12:37:29;;;;;;;8.13;3.33;;;22.60;63.10;;;;;;6096675;23;88513;-87
2023/10/23 12:39:57;;;;;;;12.63;3.72;;;22.60;62.70;;;;;;6098757;23;87769;-89
2023/10/23 12:42:25;;;;;;;8.68;3.67;;;22.60;62.90;;;;;;6103138;23;85739;-86
2023/10/23 12:44:55;;;;;;;9.02;3.45;;;22.60;63.00;;;;;;6125283;23;86236;-86
2023/10/23 12:47:25;;;;;;;13.38;4.28;;;22.60;63.10;;;;;;6096961;23;86516;-87
2023/10/23 12:49:54;;;;;;;10.48;3.30;;;22.60;63.30;;;;;;6095368;23;87011;-87
2023/10/23 12:52:19;;;;;;;9.75;3.47;;;22.60;63.40;;;;;;6098815;23;86219;-88
2023/10/23 12:54:45;;;;;;;15.02;3.90;;;22.60;63.30;;;;;;6097809;23;86330;-87
2023/10/23 12:57:11;;;;;;;11.77;3.58;;;22.60;63.40;;;;;;6128434;23;87483;-88
2023/10/23 12:59:36;;;;;;;9.18;3.80;;;22.60;63.00;;;;;;6100661;23;87309;-88
2023/10/23 13:02:03;;;;;;;8.70;2.97;;;22.60;63.30;;;;;;6104303;23;88082;-88